East Berne, NY

9:29 AM EDT on August 31, 2015 (GMT -0400)
field at base of helderberg escarpment, below thacher state park. | | Change Station
CLOSE
Current Station
Personal Weather Station
Location: Altamont, NY
Elevation: 413 ft
Nearby Weather Stations

Elev 413 ft 42.66 °N, 73.99 °W | Updated 6 seconds ago

Partly Cloudy
Partly Cloudy
75.7 °F
Feels Like 77 °F
N
0.0
Wind Variable Wind from SSW
Gusts 0.0 mph

Today
High -- | Low -- °F
--% Chance of Precip.
Yesterday
High -- | Low -- °F
Precip. -- in
6:19 AM 7:32 PM
Waning Gibbous, 95% visible
Pressure 30.02 in
Visibility 4.0 miles
Clouds Few 300 ft
Few 600 ft
Scattered Clouds 26000 ft
Heat Index 77 °F
Dew Point 68 °F
Humidity 78%
Rainfall 0.00 in
Snow Depth Not available.
UV 3.0 out of 12
Pollen 9.70 out of 12
Air Quality Not available.
Flu Activity Not available.
METAR KALB 311308Z 20004KT 4SM BR FEW003 FEW006 SCT260 22/19 A3002 RMK AO2 T02170189
Pressure 30.02 in
Visibility 4.0 miles
Clouds Few 300 ft
Few 600 ft
Scattered Clouds 26000 ft
Heat Index 77 °F
Dew Point 68 °F
Humidity 78%
Rainfall 0.00 in
Snow Depth Not available.
UV 3.0 out of 12
Pollen 9.70 out of 12
Air Quality Not available.
Flu Activity Not available.
METAR KALB 311308Z 20004KT 4SM BR FEW003 FEW006 SCT260 22/19 A3002 RMK AO2 T02170189

10-Day Weather Forecast

×

Almanac

Astronomy

Aug. 31, 2015 Rise Set
Actual Time
Civil Twilight
Nautical Twilight
Astronomical Twilight
Moon
Length of Visible Light
Length of Day
Tomorrow will be .
, % of the Moon is Illuminated

Today's Extremes

State Highs State Lows

Community

WunderPhotos

Upload Photos

1,851,231 photos uploaded!

WunderBlogs® & News

Nearby

Air Quality

  Air Quality AQ Index Pollutant
Not available.

Snow Depth

Station Depth Elevation

Earthquake Activity

City Distance Mag. Time & Date
Minimum magnitude displayed is 2.5.

Coastal Water Temperatures

Place Temperature

Stations

Nearby Weather Stations

Station Location Temp. Windchill Dew Point Humidity Wind Precip. Elev Updated Type